Archival Weather

NSFA McMurdo Sound

NSFA McMurdo Sound, Antarctica (NZCM)

Report from: Friday, September 23, 2022 3:55 PM UTC
Current time: Sunday, December 4, 2022 1:12 PM UTC

Current weather
Weather history
Weather forecast

Temperature-18.5°C (-1.3°F)
Wind chill-29.5°C (-21.0°F)
Dew point-23.2°C (-9.8°F)
Winds 13 kts (6.7 m/s, 15 mph) East (90°)
Wind gusts 23 kts (11.8 m/s, 26.5 mph)
Visibility5 mi. (8 km)
Clouds Ceiling: Overcast 3,500 ft. (1,067 m)
Altimeter28.61 in.Hg (969 mB)
Precip. events Snow began 3:06 PM
Snow ended 3:29 PM
Relative humidity66 %
Density altitude-2,686 ft. (-819 m)
Sea-level pressure107.0 kPa (1070 mB, 31.59 in.Hg)
Remarks Fully automated report
System requires maintenance
Automated weather observing station with precipitation discriminator
Flight conditions Marginal Visual Meteorological Conditions
Raw dataNZCM 231555Z AUTO 09013G23KT 8000 OVC035 M19/M23 A2861 RMK AO2 SNB1506E1529 SLP696 T11851232 $
An error has occurred. This application may no longer respond until reloaded. Reload 🗙